Terminal Aerodrome Forecast
Issued by NWS Jackson, MS

Home | Current Version | Previous Version | Text Only | Print | Product List | Glossary On
Versions: 1 2 3 4 5 6 7 8 9 10 11 12 13 14 15 16 17 18 19 20 21 22 23 24 25
000
FTUS44 KJAN 031120
TAFGWO
TAF
KGWO 031120Z 0312/0412 17003KT 5SM -RA BR SCT060 OVC110
     FM031400 20005KT P6SM VCSH SCT040 BKN100
     FM032000 21007KT P6SM VCTS SCT030CB BKN100
     FM040000 18004KT P6SM SCT100 BKN200
     FM041000 19003KT P6SM BKN012=

USA.gov is the U.S. government's official web portal to all federal, state and local government web resources and services.